Aeroporto :
LOGIN :

Iscrizione | Disclaimer

   EN    FR    IT 

 










Sommario :    VFR   VFR Marginale   IFR   IFR Intensivo   IFR Molto Intensivo
Visibilità : 
Base nubi : 
>= 8 km
>= 3000ft
5 / 8 km
1000 / 3000 ft
1500m / 5 km
500 / 1000 ft
800 / 1500m
200 / 500 ft
< 800m
< 200 ft
Simboli :   Temporali  Nebbia  Neve Forte  Precipitazioni Forti  Vento > 20 kt
SIGMETs :   Varie  Temporali  Ghiacco  Turbolenza  Onda orograficha  Ceneri Vulcaniche







- Altitudine del aeroporto : 856 ft
- Codice IATA : VGO


LEVX - Vigo Peinador

ULTIMO METAR :
  • 200300Z VRB02KT 1500 BCFG BKN001 17/17 Q1016 TEMPO 0350 FG

METARs OBSOLETI :
  • 200230Z VRB02KT 1500 BCFG BKN001 17/17 Q1016 TEMPO 0350 FG
  • 200200Z VRB01KT 1500 BCFG BKN001 17/17 Q1016 TEMPO 0350 FG
  • 200130Z VRB01KT 1500 BCFG BKN001 17/16 Q1016 TEMPO 0350 FG
  • 200100Z VRB01KT 1500 BCFG BKN002 17/17 Q1016 TEMPO 0350 FG VV001
  • 200030Z VRB02KT 0400 R19/P2000 R01/1100U BCFG VV001 17/16 Q1016 NOSIG

TAF TAF LEVX
Valido dal 20 a 00 ore il 21 a 00 ore UTC


192300Z 2000/2024 27005KT 0150 FG VV001 TX24/2014Z TN15/2003Z
TEMPO 2000/2008 0350 FG
TEMPO 2000/2008 0600 BCFG VV002
TEMPO 2000/2008 1500 BCFG BKN002
TEMPO 2000/2009 3000 BR BKN005
BECMG 2006/2010 9999 NSW FEW015
Nessun NOTAM noto per questo aeroporto.
1 SIGMET conosciuto per la FIR Madrid (LECM) :
 
Temporali affogati
LECM SIGMET 1 VALID 200236/200430 LEVA
LECM MADRID FIR/UIR EMBD TS OBS AT 0236Z WI N4252 W00045 - N4230 W00051 - N4219 W00013 - N4242 W00003 - N4252 W00045 TOP FL380 MOV NE NC=



MetMap, La meteo Aeronautica in un colpo d'occhio ! - Copyright ORBIFLY Dicembre 2007 - Disclaimer

ORBIFLY MET'MAP TEAM :

Programmazione e sviluppo : Alexandra Zaïnal
Concezione e sviluppo : Baudouin d'Aumeries
Co-Programmazione e sviluppo : Marc-Olivier Méhu
Supporto tecnico e logistico : Manuel Goepfert
Aiuto per la traduzione : Arnaldo La Scala

Contatto : metmap@orbifly.com




FONTI E CREDITI :

   NOAA